sensor_id;sensor_type;location;lat;lon;timestamp;temperature;humidity
77727;SHT30;68312;53.502;10.030;2023-04-19T00:00:40;5.27;76.55
77727;SHT30;68312;53.502;10.030;2023-04-19T00:03:09;5.31;75.55
77727;SHT30;68312;53.502;10.030;2023-04-19T00:05:36;5.31;75.52
77727;SHT30;68312;53.502;10.030;2023-04-19T00:08:04;5.31;74.61
77727;SHT30;68312;53.502;10.030;2023-04-19T00:10:30;5.33;74.40
77727;SHT30;68312;53.502;10.030;2023-04-19T00:12:56;5.31;74.55
77727;SHT30;68312;53.502;10.030;2023-04-19T00:15:21;5.26;74.98
77727;SHT30;68312;53.502;10.030;2023-04-19T00:17:47;5.16;75.27
77727;SHT30;68312;53.502;10.030;2023-04-19T00:20:12;5.13;75.06
77727;SHT30;68312;53.502;10.030;2023-04-19T00:22:38;5.16;74.81
77727;SHT30;68312;53.502;10.030;2023-04-19T00:25:05;5.12;75.10
77727;SHT30;68312;53.502;10.030;2023-04-19T00:27:31;5.12;74.56
77727;SHT30;68312;53.502;10.030;2023-04-19T00:29:58;5.13;74.70
77727;SHT30;68312;53.502;10.030;2023-04-19T00:32:23;5.19;74.47
77727;SHT30;68312;53.502;10.030;2023-04-19T00:34:49;5.20;74.77
77727;SHT30;68312;53.502;10.030;2023-04-19T00:37:15;5.28;74.26
77727;SHT30;68312;53.502;10.030;2023-04-19T00:39:40;5.31;74.13
77727;SHT30;68312;53.502;10.030;2023-04-19T00:42:06;5.38;74.08
77727;SHT30;68312;53.502;10.030;2023-04-19T00:44:32;5.38;73.92
77727;SHT30;68312;53.502;10.030;2023-04-19T00:46:59;5.40;73.93
77727;SHT30;68312;53.502;10.030;2023-04-19T00:49:26;5.37;73.80
77727;SHT30;68312;53.502;10.030;2023-04-19T00:51:52;5.41;73.40
77727;SHT30;68312;53.502;10.030;2023-04-19T00:54:19;5.37;73.65
77727;SHT30;68312;53.502;10.030;2023-04-19T00:56:45;5.33;73.94
77727;SHT30;68312;53.502;10.030;2023-04-19T00:59:13;5.27;73.79
77727;SHT30;68312;53.502;10.030;2023-04-19T01:01:40;5.24;74.12
77727;SHT30;68312;53.502;10.030;2023-04-19T01:04:06;5.23;74.11
77727;SHT30;68312;53.502;10.030;2023-04-19T01:06:34;5.22;74.07
77727;SHT30;68312;53.502;10.030;2023-04-19T01:09:00;5.16;74.33
77727;SHT30;68312;53.502;10.030;2023-04-19T01:11:27;5.09;74.34
77727;SHT30;68312;53.502;10.030;2023-04-19T01:13:54;5.03;74.42
77727;SHT30;68312;53.502;10.030;2023-04-19T01:16:21;5.05;74.39
77727;SHT30;68312;53.502;10.030;2023-04-19T01:18:47;4.99;74.48
77727;SHT30;68312;53.502;10.030;2023-04-19T01:21:12;5.05;73.58
77727;SHT30;68312;53.502;10.030;2023-04-19T01:23:38;5.06;73.63
77727;SHT30;68312;53.502;10.030;2023-04-19T01:26:04;4.99;74.04
77727;SHT30;68312;53.502;10.030;2023-04-19T01:28:31;4.99;73.70
77727;SHT30;68312;53.502;10.030;2023-04-19T01:30:56;5.07;73.27
77727;SHT30;68312;53.502;10.030;2023-04-19T01:33:22;5.07;72.67
77727;SHT30;68312;53.502;10.030;2023-04-19T01:35:49;5.10;72.43
77727;SHT30;68312;53.502;10.030;2023-04-19T01:38:16;5.06;72.40
77727;SHT30;68312;53.502;10.030;2023-04-19T01:40:42;5.05;72.37
77727;SHT30;68312;53.502;10.030;2023-04-19T01:43:11;5.07;72.19
77727;SHT30;68312;53.502;10.030;2023-04-19T01:45:37;5.10;71.94
77727;SHT30;68312;53.502;10.030;2023-04-19T01:48:03;5.13;71.66
77727;SHT30;68312;53.502;10.030;2023-04-19T01:50:30;5.16;71.61
77727;SHT30;68312;53.502;10.030;2023-04-19T01:52:56;5.12;71.88
77727;SHT30;68312;53.502;10.030;2023-04-19T01:55:23;5.13;71.40
77727;SHT30;68312;53.502;10.030;2023-04-19T01:57:50;5.12;71.62
77727;SHT30;68312;53.502;10.030;2023-04-19T02:00:19;5.13;71.36
77727;SHT30;68312;53.502;10.030;2023-04-19T02:02:46;5.16;71.25
77727;SHT30;68312;53.502;10.030;2023-04-19T02:05:12;5.19;71.27
77727;SHT30;68312;53.502;10.030;2023-04-19T02:07:37;5.17;71.25
77727;SHT30;68312;53.502;10.030;2023-04-19T02:10:04;5.16;71.24
77727;SHT30;68312;53.502;10.030;2023-04-19T02:12:33;5.26;70.79
77727;SHT30;68312;53.502;10.030;2023-04-19T02:14:59;5.20;71.12
77727;SHT30;68312;53.502;10.030;2023-04-19T02:17:26;5.26;71.35
77727;SHT30;68312;53.502;10.030;2023-04-19T02:19:53;5.23;71.63
77727;SHT30;68312;53.502;10.030;2023-04-19T02:22:19;5.16;72.15
77727;SHT30;68312;53.502;10.030;2023-04-19T02:24:45;5.12;72.39
77727;SHT30;68312;53.502;10.030;2023-04-19T02:27:12;5.19;72.47
77727;SHT30;68312;53.502;10.030;2023-04-19T02:29:38;5.24;72.67
77727;SHT30;68312;53.502;10.030;2023-04-19T02:32:04;5.17;73.44
77727;SHT30;68312;53.502;10.030;2023-04-19T02:34:34;5.13;73.71
77727;SHT30;68312;53.502;10.030;2023-04-19T02:37:01;5.12;74.04
77727;SHT30;68312;53.502;10.030;2023-04-19T02:39:27;5.10;74.67
77727;SHT30;68312;53.502;10.030;2023-04-19T02:41:54;5.05;75.19
77727;SHT30;68312;53.502;10.030;2023-04-19T02:44:20;4.99;75.56
77727;SHT30;68312;53.502;10.030;2023-04-19T02:46:53;4.96;76.08
77727;SHT30;68312;53.502;10.030;2023-04-19T02:49:20;4.92;76.49
77727;SHT30;68312;53.502;10.030;2023-04-19T02:51:46;4.97;76.88
77727;SHT30;68312;53.502;10.030;2023-04-19T02:54:12;5.00;77.14
77727;SHT30;68312;53.502;10.030;2023-04-19T02:56:38;4.96;77.74
77727;SHT30;68312;53.502;10.030;2023-04-19T02:59:04;4.99;77.96
77727;SHT30;68312;53.502;10.030;2023-04-19T03:01:30;4.93;78.29
77727;SHT30;68312;53.502;10.030;2023-04-19T03:03:57;4.86;78.77
77727;SHT30;68312;53.502;10.030;2023-04-19T03:06:23;4.76;79.04
77727;SHT30;68312;53.502;10.030;2023-04-19T03:08:49;4.67;79.97
77727;SHT30;68312;53.502;10.030;2023-04-19T03:11:15;4.64;80.44
77727;SHT30;68312;53.502;10.030;2023-04-19T03:13:41;4.65;80.62
77727;SHT30;68312;53.502;10.030;2023-04-19T03:16:07;4.75;80.56
77727;SHT30;68312;53.502;10.030;2023-04-19T03:18:34;4.79;80.69
77727;SHT30;68312;53.502;10.030;2023-04-19T03:21:01;4.79;80.64
77727;SHT30;68312;53.502;10.030;2023-04-19T03:23:27;4.79;80.46
77727;SHT30;68312;53.502;10.030;2023-04-19T03:25:53;4.75;80.56
77727;SHT30;68312;53.502;10.030;2023-04-19T03:28:18;4.75;80.32
77727;SHT30;68312;53.502;10.030;2023-04-19T03:30:44;4.71;80.50
77727;SHT30;68312;53.502;10.030;2023-04-19T03:33:10;4.67;80.84
77727;SHT30;68312;53.502;10.030;2023-04-19T03:35:36;4.69;80.83
77727;SHT30;68312;53.502;10.030;2023-04-19T03:38:01;4.72;79.64
77727;SHT30;68312;53.502;10.030;2023-04-19T03:40:27;4.80;79.17
77727;SHT30;68312;53.502;10.030;2023-04-19T03:42:52;4.90;78.25
77727;SHT30;68312;53.502;10.030;2023-04-19T03:45:18;4.95;77.49
77727;SHT30;68312;53.502;10.030;2023-04-19T03:47:43;4.99;77.21
77727;SHT30;68312;53.502;10.030;2023-04-19T03:50:09;4.96;76.90
77727;SHT30;68312;53.502;10.030;2023-04-19T03:52:35;5.01;76.49
77727;SHT30;68312;53.502;10.030;2023-04-19T03:55:01;5.03;76.30
77727;SHT30;68312;53.502;10.030;2023-04-19T03:57:26;5.06;76.45
77727;SHT30;68312;53.502;10.030;2023-04-19T03:59:52;5.01;76.68
77727;SHT30;68312;53.502;10.030;2023-04-19T04:02:17;5.00;76.66
77727;SHT30;68312;53.502;10.030;2023-04-19T04:04:43;4.93;77.30
77727;SHT30;68312;53.502;10.030;2023-04-19T04:07:08;4.99;77.13
77727;SHT30;68312;53.502;10.030;2023-04-19T04:09:34;5.10;75.95
77727;SHT30;68312;53.502;10.030;2023-04-19T04:11:59;5.13;76.09
77727;SHT30;68312;53.502;10.030;2023-04-19T04:14:25;5.16;75.52
77727;SHT30;68312;53.502;10.030;2023-04-19T04:16:50;5.13;76.15
77727;SHT30;68312;53.502;10.030;2023-04-19T04:19:16;5.03;76.61
77727;SHT30;68312;53.502;10.030;2023-04-19T04:21:42;4.95;77.01
77727;SHT30;68312;53.502;10.030;2023-04-19T04:24:07;4.85;77.27
77727;SHT30;68312;53.502;10.030;2023-04-19T04:26:34;4.78;77.54
77727;SHT30;68312;53.502;10.030;2023-04-19T04:29:00;4.71;77.89
77727;SHT30;68312;53.502;10.030;2023-04-19T04:31:27;4.65;78.39
77727;SHT30;68312;53.502;10.030;2023-04-19T04:33:52;4.61;78.61
77727;SHT30;68312;53.502;10.030;2023-04-19T04:36:22;4.65;78.74
77727;SHT30;68312;53.502;10.030;2023-04-19T04:38:49;4.72;78.66
77727;SHT30;68312;53.502;10.030;2023-04-19T04:41:14;4.78;78.28
77727;SHT30;68312;53.502;10.030;2023-04-19T04:43:41;4.85;78.24
77727;SHT30;68312;53.502;10.030;2023-04-19T04:46:06;4.97;77.94
77727;SHT30;68312;53.502;10.030;2023-04-19T04:48:33;5.07;77.88
77727;SHT30;68312;53.502;10.030;2023-04-19T04:50:59;5.20;77.35
77727;SHT30;68312;53.502;10.030;2023-04-19T04:53:25;5.27;77.19
77727;SHT30;68312;53.502;10.030;2023-04-19T04:55:54;5.38;76.68
77727;SHT30;68312;53.502;10.030;2023-04-19T04:58:20;5.46;76.41
77727;SHT30;68312;53.502;10.030;2023-04-19T05:00:45;5.61;75.56
77727;SHT30;68312;53.502;10.030;2023-04-19T05:03:13;5.74;75.04
77727;SHT30;68312;53.502;10.030;2023-04-19T05:05:38;5.81;74.78
77727;SHT30;68312;53.502;10.030;2023-04-19T05:08:04;5.88;73.77
77727;SHT30;68312;53.502;10.030;2023-04-19T05:10:30;5.98;73.59
77727;SHT30;68312;53.502;10.030;2023-04-19T05:12:56;6.03;73.47
77727;SHT30;68312;53.502;10.030;2023-04-19T05:15:21;6.10;73.12
77727;SHT30;68312;53.502;10.030;2023-04-19T05:17:47;6.19;72.17
77727;SHT30;68312;53.502;10.030;2023-04-19T05:20:12;6.22;71.17
77727;SHT30;68312;53.502;10.030;2023-04-19T05:22:38;6.20;71.03
77727;SHT30;68312;53.502;10.030;2023-04-19T05:25:05;6.20;70.98
77727;SHT30;68312;53.502;10.030;2023-04-19T05:27:31;6.26;70.40
77727;SHT30;68312;53.502;10.030;2023-04-19T05:29:56;6.25;70.62
77727;SHT30;68312;53.502;10.030;2023-04-19T05:32:22;6.27;70.32
77727;SHT30;68312;53.502;10.030;2023-04-19T05:34:47;6.32;69.86
77727;SHT30;68312;53.502;10.030;2023-04-19T05:37:13;6.34;68.58
77727;SHT30;68312;53.502;10.030;2023-04-19T05:39:38;6.40;68.69
77727;SHT30;68312;53.502;10.030;2023-04-19T05:42:04;6.43;68.46
77727;SHT30;68312;53.502;10.030;2023-04-19T05:44:30;6.50;68.24
77727;SHT30;68312;53.502;10.030;2023-04-19T05:46:58;6.53;68.18
77727;SHT30;68312;53.502;10.030;2023-04-19T05:49:24;6.58;67.46
77727;SHT30;68312;53.502;10.030;2023-04-19T05:51:49;6.64;67.04
77727;SHT30;68312;53.502;10.030;2023-04-19T05:54:18;6.77;65.47
77727;SHT30;68312;53.502;10.030;2023-04-19T05:56:43;6.81;66.43
77727;SHT30;68312;53.502;10.030;2023-04-19T05:59:09;6.88;64.80
77727;SHT30;68312;53.502;10.030;2023-04-19T06:01:35;6.99;63.71
77727;SHT30;68312;53.502;10.030;2023-04-19T06:04:01;7.05;64.43
77727;SHT30;68312;53.502;10.030;2023-04-19T06:06:27;7.14;63.04
77727;SHT30;68312;53.502;10.030;2023-04-19T06:08:52;7.19;61.11
77727;SHT30;68312;53.502;10.030;2023-04-19T06:11:18;7.27;62.91
77727;SHT30;68312;53.502;10.030;2023-04-19T06:13:43;7.33;62.73
77727;SHT30;68312;53.502;10.030;2023-04-19T06:16:09;7.42;61.02
77727;SHT30;68312;53.502;10.030;2023-04-19T06:18:35;7.52;61.27
77727;SHT30;68312;53.502;10.030;2023-04-19T06:21:00;7.59;61.66
77727;SHT30;68312;53.502;10.030;2023-04-19T06:23:26;7.66;61.26
77727;SHT30;68312;53.502;10.030;2023-04-19T06:25:51;7.71;60.68
77727;SHT30;68312;53.502;10.030;2023-04-19T06:28:17;7.84;60.66
77727;SHT30;68312;53.502;10.030;2023-04-19T06:30:44;7.95;62.22
77727;SHT30;68312;53.502;10.030;2023-04-19T06:33:10;8.08;59.51
77727;SHT30;68312;53.502;10.030;2023-04-19T06:35:36;8.21;59.50
77727;SHT30;68312;53.502;10.030;2023-04-19T06:38:01;8.31;60.13
77727;SHT30;68312;53.502;10.030;2023-04-19T06:40:33;8.45;58.61
77727;SHT30;68312;53.502;10.030;2023-04-19T06:42:59;8.57;56.63
77727;SHT30;68312;53.502;10.030;2023-04-19T06:45:24;8.60;56.56
77727;SHT30;68312;53.502;10.030;2023-04-19T06:47:51;8.73;56.88
77727;SHT30;68312;53.502;10.030;2023-04-19T06:50:16;8.90;55.92
77727;SHT30;68312;53.502;10.030;2023-04-19T06:52:42;9.15;57.07
77727;SHT30;68312;53.502;10.030;2023-04-19T06:55:08;9.31;54.75
77727;SHT30;68312;53.502;10.030;2023-04-19T06:57:34;9.42;52.77
77727;SHT30;68312;53.502;10.030;2023-04-19T06:59:59;9.56;54.09
77727;SHT30;68312;53.502;10.030;2023-04-19T07:02:25;9.83;53.48
77727;SHT30;68312;53.502;10.030;2023-04-19T07:04:51;9.80;51.69
77727;SHT30;68312;53.502;10.030;2023-04-19T07:07:16;9.80;52.02
77727;SHT30;68312;53.502;10.030;2023-04-19T07:09:42;9.92;52.27
77727;SHT30;68312;53.502;10.030;2023-04-19T07:12:07;10.07;51.77
77727;SHT30;68312;53.502;10.030;2023-04-19T07:14:33;10.17;51.12
77727;SHT30;68312;53.502;10.030;2023-04-19T07:16:59;10.09;50.74
77727;SHT30;68312;53.502;10.030;2023-04-19T07:19:24;10.33;51.95
77727;SHT30;68312;53.502;10.030;2023-04-19T07:21:50;10.52;50.69
77727;SHT30;68312;53.502;10.030;2023-04-19T07:24:16;10.76;49.49
77727;SHT30;68312;53.502;10.030;2023-04-19T07:26:41;10.98;49.39
77727;SHT30;68312;53.502;10.030;2023-04-19T07:29:07;10.83;49.24
77727;SHT30;68312;53.502;10.030;2023-04-19T07:31:33;10.67;49.32
77727;SHT30;68312;53.502;10.030;2023-04-19T07:33:58;10.73;49.39
77727;SHT30;68312;53.502;10.030;2023-04-19T07:36:24;11.08;48.35
77727;SHT30;68312;53.502;10.030;2023-04-19T07:38:49;10.95;48.10
77727;SHT30;68312;53.502;10.030;2023-04-19T07:41:15;11.03;48.75
77727;SHT30;68312;53.502;10.030;2023-04-19T07:43:40;11.31;48.61
77727;SHT30;68312;53.502;10.030;2023-04-19T07:46:13;11.48;47.05
77727;SHT30;68312;53.502;10.030;2023-04-19T07:48:40;11.97;47.88
77727;SHT30;68312;53.502;10.030;2023-04-19T07:51:10;12.05;45.48
77727;SHT30;68312;53.502;10.030;2023-04-19T07:53:38;12.28;47.12
77727;SHT30;68312;53.502;10.030;2023-04-19T07:56:07;12.55;46.91
77727;SHT30;68312;53.502;10.030;2023-04-19T07:58:34;13.00;45.40
77727;SHT30;68312;53.502;10.030;2023-04-19T08:01:01;13.44;42.69
77727;SHT30;68312;53.502;10.030;2023-04-19T08:03:27;13.29;42.53
77727;SHT30;68312;53.502;10.030;2023-04-19T08:05:52;13.61;43.30
77727;SHT30;68312;53.502;10.030;2023-04-19T08:08:18;14.21;40.09
77727;SHT30;68312;53.502;10.030;2023-04-19T08:10:43;15.26;39.16
77727;SHT30;68312;53.502;10.030;2023-04-19T08:13:10;16.02;38.21
77727;SHT30;68312;53.502;10.030;2023-04-19T08:15:35;16.34;36.28
77727;SHT30;68312;53.502;10.030;2023-04-19T08:18:01;16.67;36.76
77727;SHT30;68312;53.502;10.030;2023-04-19T08:20:29;15.03;38.34
77727;SHT30;68312;53.502;10.030;2023-04-19T08:22:56;13.69;40.48
77727;SHT30;68312;53.502;10.030;2023-04-19T08:25:22;13.21;41.46
77727;SHT30;68312;53.502;10.030;2023-04-19T08:27:52;12.98;41.40
77727;SHT30;68312;53.502;10.030;2023-04-19T08:30:18;13.18;41.57
77727;SHT30;68312;53.502;10.030;2023-04-19T08:32:44;13.86;42.51
77727;SHT30;68312;53.502;10.030;2023-04-19T08:35:10;13.76;40.93
77727;SHT30;68312;53.502;10.030;2023-04-19T08:37:35;14.14;41.51
77727;SHT30;68312;53.502;10.030;2023-04-19T08:40:01;14.23;39.84
77727;SHT30;68312;53.502;10.030;2023-04-19T08:42:30;14.14;39.72
77727;SHT30;68312;53.502;10.030;2023-04-19T08:44:56;14.40;37.69
77727;SHT30;68312;53.502;10.030;2023-04-19T08:47:27;14.31;40.12
77727;SHT30;68312;53.502;10.030;2023-04-19T08:49:56;14.67;37.84
77727;SHT30;68312;53.502;10.030;2023-04-19T08:52:26;14.72;36.96
77727;SHT30;68312;53.502;10.030;2023-04-19T08:54:54;14.79;37.27
77727;SHT30;68312;53.502;10.030;2023-04-19T08:57:20;15.29;38.66
77727;SHT30;68312;53.502;10.030;2023-04-19T08:59:46;16.12;33.89
77727;SHT30;68312;53.502;10.030;2023-04-19T09:02:15;16.28;34.28
77727;SHT30;68312;53.502;10.030;2023-04-19T09:04:41;16.76;32.94
77727;SHT30;68312;53.502;10.030;2023-04-19T09:07:08;17.17;32.94
77727;SHT30;68312;53.502;10.030;2023-04-19T09:10:07;18.40;31.05
77727;SHT30;68312;53.502;10.030;2023-04-19T09:12:36;17.73;31.40
77727;SHT30;68312;53.502;10.030;2023-04-19T09:15:04;18.34;28.72
77727;SHT30;68312;53.502;10.030;2023-04-19T09:17:33;18.41;28.55
77727;SHT30;68312;53.502;10.030;2023-04-19T09:20:00;18.71;28.07
77727;SHT30;68312;53.502;10.030;2023-04-19T09:22:26;18.82;27.60
77727;SHT30;68312;53.502;10.030;2023-04-19T09:24:51;18.81;27.08
77727;SHT30;68312;53.502;10.030;2023-04-19T09:27:35;18.45;27.89
77727;SHT30;68312;53.502;10.030;2023-04-19T09:30:04;18.17;27.54
77727;SHT30;68312;53.502;10.030;2023-04-19T09:32:46;18.15;26.79
77727;SHT30;68312;53.502;10.030;2023-04-19T09:35:12;17.86;26.80
77727;SHT30;68312;53.502;10.030;2023-04-19T09:37:37;18.07;25.95
77727;SHT30;68312;53.502;10.030;2023-04-19T09:40:24;18.05;27.95
77727;SHT30;68312;53.502;10.030;2023-04-19T09:42:51;18.42;25.79
77727;SHT30;68312;53.502;10.030;2023-04-19T09:45:16;18.72;27.02
77727;SHT30;68312;53.502;10.030;2023-04-19T09:47:42;18.56;26.20
77727;SHT30;68312;53.502;10.030;2023-04-19T09:50:09;18.47;27.68
77727;SHT30;68312;53.502;10.030;2023-04-19T09:52:36;18.92;27.35
77727;SHT30;68312;53.502;10.030;2023-04-19T09:55:05;19.35;26.07
77727;SHT30;68312;53.502;10.030;2023-04-19T09:57:33;18.88;25.76
77727;SHT30;68312;53.502;10.030;2023-04-19T10:00:01;19.03;25.10
77727;SHT30;68312;53.502;10.030;2023-04-19T10:02:31;19.14;24.85
77727;SHT30;68312;53.502;10.030;2023-04-19T10:04:58;18.59;23.88
77727;SHT30;68312;53.502;10.030;2023-04-19T10:07:25;18.47;24.89
77727;SHT30;68312;53.502;10.030;2023-04-19T10:09:54;18.61;26.79
77727;SHT30;68312;53.502;10.030;2023-04-19T10:12:25;18.54;24.69
77727;SHT30;68312;53.502;10.030;2023-04-19T10:14:54;18.07;23.82
77727;SHT30;68312;53.502;10.030;2023-04-19T10:17:26;18.45;25.25
77727;SHT30;68312;53.502;10.030;2023-04-19T10:20:03;18.41;23.84
77727;SHT30;68312;53.502;10.030;2023-04-19T10:22:34;18.23;24.23
77727;SHT30;68312;53.502;10.030;2023-04-19T10:27:38;18.61;25.65
77727;SHT30;68312;53.502;10.030;2023-04-19T10:30:06;18.23;25.21
77727;SHT30;68312;53.502;10.030;2023-04-19T10:32:45;18.31;24.10
77727;SHT30;68312;53.502;10.030;2023-04-19T10:35:21;18.81;24.65
77727;SHT30;68312;53.502;10.030;2023-04-19T10:38:08;17.98;24.50
77727;SHT30;68312;53.502;10.030;2023-04-19T10:43:18;17.42;24.19
77727;SHT30;68312;53.502;10.030;2023-04-19T10:45:45;17.47;24.44
77727;SHT30;68312;53.502;10.030;2023-04-19T10:51:02;17.76;25.00
77727;SHT30;68312;53.502;10.030;2023-04-19T10:57:04;18.40;24.85
77727;SHT30;68312;53.502;10.030;2023-04-19T10:59:37;18.68;24.05
77727;SHT30;68312;53.502;10.030;2023-04-19T11:02:26;19.77;21.68
77727;SHT30;68312;53.502;10.030;2023-04-19T11:04:59;19.31;21.67
77727;SHT30;68312;53.502;10.030;2023-04-19T11:07:25;19.20;23.87
77727;SHT30;68312;53.502;10.030;2023-04-19T11:09:51;19.34;21.11
77727;SHT30;68312;53.502;10.030;2023-04-19T11:12:19;18.59;21.68
77727;SHT30;68312;53.502;10.030;2023-04-19T11:14:54;18.52;22.82
77727;SHT30;68312;53.502;10.030;2023-04-19T11:17:27;17.82;23.05
77727;SHT30;68312;53.502;10.030;2023-04-19T11:27:46;16.81;23.51
77727;SHT30;68312;53.502;10.030;2023-04-19T11:30:16;17.52;22.91
77727;SHT30;68312;53.502;10.030;2023-04-19T11:32:46;17.19;23.17
77727;SHT30;68312;53.502;10.030;2023-04-19T11:35:21;17.75;22.35
77727;SHT30;68312;53.502;10.030;2023-04-19T11:37:49;17.25;23.18
77727;SHT30;68312;53.502;10.030;2023-04-19T11:40:21;17.47;24.45
77727;SHT30;68312;53.502;10.030;2023-04-19T11:42:58;17.97;22.96
77727;SHT30;68312;53.502;10.030;2023-04-19T11:45:33;17.97;22.26
77727;SHT30;68312;53.502;10.030;2023-04-19T11:48:03;18.00;24.47
77727;SHT30;68312;53.502;10.030;2023-04-19T11:50:40;17.82;22.25
77727;SHT30;68312;53.502;10.030;2023-04-19T11:55:50;17.28;24.97
77727;SHT30;68312;53.502;10.030;2023-04-19T11:58:28;17.62;22.39
77727;SHT30;68312;53.502;10.030;2023-04-19T12:03:34;17.15;23.78
77727;SHT30;68312;53.502;10.030;2023-04-19T12:06:04;17.18;24.44
77727;SHT30;68312;53.502;10.030;2023-04-19T12:08:37;17.50;22.24
77727;SHT30;68312;53.502;10.030;2023-04-19T12:11:06;16.67;23.43
77727;SHT30;68312;53.502;10.030;2023-04-19T12:13:33;16.56;23.57
77727;SHT30;68312;53.502;10.030;2023-04-19T12:16:02;16.37;22.94
77727;SHT30;68312;53.502;10.030;2023-04-19T12:18:42;16.50;24.62
77727;SHT30;68312;53.502;10.030;2023-04-19T12:21:23;16.46;22.90
77727;SHT30;68312;53.502;10.030;2023-04-19T12:24:01;16.68;23.42
77727;SHT30;68312;53.502;10.030;2023-04-19T12:26:29;16.78;22.92
77727;SHT30;68312;53.502;10.030;2023-04-19T12:28:56;16.67;23.41
77727;SHT30;68312;53.502;10.030;2023-04-19T12:31:23;16.88;23.32
77727;SHT30;68312;53.502;10.030;2023-04-19T12:33:49;16.57;23.44
77727;SHT30;68312;53.502;10.030;2023-04-19T12:36:15;17.07;23.57
77727;SHT30;68312;53.502;10.030;2023-04-19T12:38:41;16.89;23.16
77727;SHT30;68312;53.502;10.030;2023-04-19T12:41:06;16.60;23.54
77727;SHT30;68312;53.502;10.030;2023-04-19T12:43:32;16.85;24.60
77727;SHT30;68312;53.502;10.030;2023-04-19T12:45:58;17.18;23.96
77727;SHT30;68312;53.502;10.030;2023-04-19T12:48:25;17.03;24.83
77727;SHT30;68312;53.502;10.030;2023-04-19T12:50:51;17.05;24.69
77727;SHT30;68312;53.502;10.030;2023-04-19T12:53:17;17.25;25.53
77727;SHT30;68312;53.502;10.030;2023-04-19T12:55:43;17.56;24.45
77727;SHT30;68312;53.502;10.030;2023-04-19T12:58:13;17.72;25.76
77727;SHT30;68312;53.502;10.030;2023-04-19T13:00:39;17.63;24.99
77727;SHT30;68312;53.502;10.030;2023-04-19T13:03:04;18.11;25.08
77727;SHT30;68312;53.502;10.030;2023-04-19T13:05:30;17.82;24.60
77727;SHT30;68312;53.502;10.030;2023-04-19T13:07:55;17.87;24.36
77727;SHT30;68312;53.502;10.030;2023-04-19T13:10:21;17.49;23.95
77727;SHT30;68312;53.502;10.030;2023-04-19T13:12:47;17.18;23.53
77727;SHT30;68312;53.502;10.030;2023-04-19T13:15:12;16.95;23.08
77727;SHT30;68312;53.502;10.030;2023-04-19T13:17:38;16.70;22.97
77727;SHT30;68312;53.502;10.030;2023-04-19T13:20:04;16.84;23.39
77727;SHT30;68312;53.502;10.030;2023-04-19T13:22:31;16.98;23.62
77727;SHT30;68312;53.502;10.030;2023-04-19T13:24:57;16.23;24.27
77727;SHT30;68312;53.502;10.030;2023-04-19T13:27:25;16.77;24.39
77727;SHT30;68312;53.502;10.030;2023-04-19T13:29:54;16.47;23.78
77727;SHT30;68312;53.502;10.030;2023-04-19T13:32:20;16.19;23.38
77727;SHT30;68312;53.502;10.030;2023-04-19T13:34:46;15.99;24.02
77727;SHT30;68312;53.502;10.030;2023-04-19T13:37:11;15.74;24.12
77727;SHT30;68312;53.502;10.030;2023-04-19T13:39:37;15.81;24.56
77727;SHT30;68312;53.502;10.030;2023-04-19T13:42:03;15.88;24.59
77727;SHT30;68312;53.502;10.030;2023-04-19T13:44:30;16.26;25.10
77727;SHT30;68312;53.502;10.030;2023-04-19T13:46:55;16.45;23.42
77727;SHT30;68312;53.502;10.030;2023-04-19T13:49:21;15.62;25.18
77727;SHT30;68312;53.502;10.030;2023-04-19T13:51:47;14.93;26.53
77727;SHT30;68312;53.502;10.030;2023-04-19T13:54:13;15.79;24.82
77727;SHT30;68312;53.502;10.030;2023-04-19T13:56:38;15.97;24.69
77727;SHT30;68312;53.502;10.030;2023-04-19T13:59:04;16.59;23.36
77727;SHT30;68312;53.502;10.030;2023-04-19T14:01:30;16.18;24.14
77727;SHT30;68312;53.502;10.030;2023-04-19T14:03:55;15.68;25.34
77727;SHT30;68312;53.502;10.030;2023-04-19T14:06:21;15.22;24.92
77727;SHT30;68312;53.502;10.030;2023-04-19T14:08:46;14.82;25.68
77727;SHT30;68312;53.502;10.030;2023-04-19T14:11:12;14.88;26.66
77727;SHT30;68312;53.502;10.030;2023-04-19T14:13:37;14.64;25.18
77727;SHT30;68312;53.502;10.030;2023-04-19T14:16:03;15.13;26.24
77727;SHT30;68312;53.502;10.030;2023-04-19T14:18:29;15.14;25.50
77727;SHT30;68312;53.502;10.030;2023-04-19T14:20:55;15.00;25.10
77727;SHT30;68312;53.502;10.030;2023-04-19T14:23:20;15.50;24.84
77727;SHT30;68312;53.502;10.030;2023-04-19T14:25:46;16.23;24.27
77727;SHT30;68312;53.502;10.030;2023-04-19T14:28:11;17.17;23.58
77727;SHT30;68312;53.502;10.030;2023-04-19T14:30:38;17.00;22.60
77727;SHT30;68312;53.502;10.030;2023-04-19T14:33:04;17.17;23.25
77727;SHT30;68312;53.502;10.030;2023-04-19T14:35:30;16.83;24.93
77727;SHT30;68312;53.502;10.030;2023-04-19T14:37:56;16.74;24.47
77727;SHT30;68312;53.502;10.030;2023-04-19T14:40:21;16.20;25.19
77727;SHT30;68312;53.502;10.030;2023-04-19T14:42:47;16.37;24.89
77727;SHT30;68312;53.502;10.030;2023-04-19T14:45:13;16.12;25.01
77727;SHT30;68312;53.502;10.030;2023-04-19T14:47:39;15.74;24.50
77727;SHT30;68312;53.502;10.030;2023-04-19T14:50:05;15.62;24.39
77727;SHT30;68312;53.502;10.030;2023-04-19T14:52:31;15.46;23.99
77727;SHT30;68312;53.502;10.030;2023-04-19T14:54:57;15.34;25.34
77727;SHT30;68312;53.502;10.030;2023-04-19T14:57:26;15.40;24.16
77727;SHT30;68312;53.502;10.030;2023-04-19T14:59:56;15.13;24.26
77727;SHT30;68312;53.502;10.030;2023-04-19T15:02:26;15.14;24.69
77727;SHT30;68312;53.502;10.030;2023-04-19T15:04:52;15.23;24.57
77727;SHT30;68312;53.502;10.030;2023-04-19T15:07:18;14.92;24.65
77727;SHT30;68312;53.502;10.030;2023-04-19T15:09:44;15.03;23.71
77727;SHT30;68312;53.502;10.030;2023-04-19T15:12:10;14.54;24.38
77727;SHT30;68312;53.502;10.030;2023-04-19T15:14:37;14.18;25.70
77727;SHT30;68312;53.502;10.030;2023-04-19T15:17:03;14.44;26.17
77727;SHT30;68312;53.502;10.030;2023-04-19T15:19:30;14.58;25.15
77727;SHT30;68312;53.502;10.030;2023-04-19T15:21:56;14.44;26.13
77727;SHT30;68312;53.502;10.030;2023-04-19T15:24:22;14.16;26.10
77727;SHT30;68312;53.502;10.030;2023-04-19T15:26:47;13.80;24.97
77727;SHT30;68312;53.502;10.030;2023-04-19T15:29:13;13.82;25.09
77727;SHT30;68312;53.502;10.030;2023-04-19T15:31:38;13.63;25.84
77727;SHT30;68312;53.502;10.030;2023-04-19T15:34:04;13.89;24.91
77727;SHT30;68312;53.502;10.030;2023-04-19T15:36:30;13.89;24.33
77727;SHT30;68312;53.502;10.030;2023-04-19T15:38:58;13.89;25.13
77727;SHT30;68312;53.502;10.030;2023-04-19T15:41:24;13.99;24.27
77727;SHT30;68312;53.502;10.030;2023-04-19T15:43:49;13.67;23.71
77727;SHT30;68312;53.502;10.030;2023-04-19T15:46:16;13.58;25.29